sensor_id;sensor_type;location;lat;lon;timestamp;pressure;altitude;pressure_sealevel;temperature;humidity
48926;BME280;39838;59.938;30.642;2024-01-30T00:01:10;101545.53;;;1.81;86.76
48926;BME280;39838;59.938;30.642;2024-01-30T00:03:38;101562.59;;;1.80;86.59
48926;BME280;39838;59.938;30.642;2024-01-30T00:06:06;101542.81;;;1.78;86.64
48926;BME280;39838;59.938;30.642;2024-01-30T00:08:35;101555.56;;;1.76;86.70
48926;BME280;39838;59.938;30.642;2024-01-30T00:11:03;101560.75;;;1.78;86.97
48926;BME280;39838;59.938;30.642;2024-01-30T00:13:31;101549.63;;;1.77;86.98
48926;BME280;39838;59.938;30.642;2024-01-30T00:15:58;101543.69;;;1.78;86.71
48926;BME280;39838;59.938;30.642;2024-01-30T00:18:26;101534.16;;;1.76;87.08
48926;BME280;39838;59.938;30.642;2024-01-30T00:20:53;101542.75;;;1.76;87.00
48926;BME280;39838;59.938;30.642;2024-01-30T00:23:21;101557.31;;;1.77;86.97
48926;BME280;39838;59.938;30.642;2024-01-30T00:25:50;101566.69;;;1.77;86.72
48926;BME280;39838;59.938;30.642;2024-01-30T00:28:17;101577.63;;;1.74;87.06
48926;BME280;39838;59.938;30.642;2024-01-30T00:30:44;101562.34;;;1.76;86.77
48926;BME280;39838;59.938;30.642;2024-01-30T00:33:12;101565.06;;;1.79;86.99
48926;BME280;39838;59.938;30.642;2024-01-30T00:35:39;101571.81;;;1.77;87.02
48926;BME280;39838;59.938;30.642;2024-01-30T00:38:06;101570.69;;;1.72;87.03
48926;BME280;39838;59.938;30.642;2024-01-30T00:40:33;101574.13;;;1.72;87.01
48926;BME280;39838;59.938;30.642;2024-01-30T00:43:02;101579.19;;;1.71;87.21
48926;BME280;39838;59.938;30.642;2024-01-30T00:45:30;101579.06;;;1.69;87.57
48926;BME280;39838;59.938;30.642;2024-01-30T00:47:57;101592.69;;;1.68;87.52
48926;BME280;39838;59.938;30.642;2024-01-30T00:50:24;101594.22;;;1.64;87.68
48926;BME280;39838;59.938;30.642;2024-01-30T00:52:51;101591.41;;;1.60;87.94
48926;BME280;39838;59.938;30.642;2024-01-30T00:55:19;101598.94;;;1.57;87.97
48926;BME280;39838;59.938;30.642;2024-01-30T00:57:46;101591.16;;;1.55;87.99
48926;BME280;39838;59.938;30.642;2024-01-30T01:00:15;101596.28;;;1.55;88.14
48926;BME280;39838;59.938;30.642;2024-01-30T01:02:43;101596.28;;;1.55;88.22
48926;BME280;39838;59.938;30.642;2024-01-30T01:05:10;101594.78;;;1.59;88.23
48926;BME280;39838;59.938;30.642;2024-01-30T01:07:38;101598.13;;;1.58;88.38
48926;BME280;39838;59.938;30.642;2024-01-30T01:10:06;101575.16;;;1.43;88.12
48926;BME280;39838;59.938;30.642;2024-01-30T01:12:34;101602.31;;;1.56;88.32
48926;BME280;39838;59.938;30.642;2024-01-30T01:15:01;101594.50;;;1.54;88.06
48926;BME280;39838;59.938;30.642;2024-01-30T01:17:32;101601.41;;;1.55;88.19
48926;BME280;39838;59.938;30.642;2024-01-30T01:19:59;101609.06;;;1.55;87.99
48926;BME280;39838;59.938;30.642;2024-01-30T01:22:26;101620.31;;;1.57;87.71
48926;BME280;39838;59.938;30.642;2024-01-30T01:24:54;101610.00;;;1.56;87.84
48926;BME280;39838;59.938;30.642;2024-01-30T01:27:21;101614.19;;;1.55;88.15
48926;BME280;39838;59.938;30.642;2024-01-30T01:29:48;101575.97;;;1.27;87.99
48926;BME280;39838;59.938;30.642;2024-01-30T01:32:16;101621.00;;;1.55;87.99
48926;BME280;39838;59.938;30.642;2024-01-30T01:34:44;101632.84;;;1.53;88.18
48926;BME280;39838;59.938;30.642;2024-01-30T01:37:12;101629.34;;;1.51;88.29
48926;BME280;39838;59.938;30.642;2024-01-30T01:39:39;101625.72;;;1.47;88.33
48926;BME280;39838;59.938;30.642;2024-01-30T01:42:06;101620.59;;;1.47;88.56
48926;BME280;39838;59.938;30.642;2024-01-30T01:44:33;101631.81;;;1.49;88.31
48926;BME280;39838;59.938;30.642;2024-01-30T01:47:01;101627.47;;;1.48;88.36
48926;BME280;39838;59.938;30.642;2024-01-30T01:49:29;101634.19;;;1.46;88.75
48926;BME280;39838;59.938;30.642;2024-01-30T01:51:58;101623.88;;;1.45;88.26
48926;BME280;39838;59.938;30.642;2024-01-30T01:54:26;101575.00;;;1.09;88.59
48926;BME280;39838;59.938;30.642;2024-01-30T01:56:56;101636.63;;;1.43;88.75
48926;BME280;39838;59.938;30.642;2024-01-30T01:59:23;101648.44;;;1.41;88.78
48926;BME280;39838;59.938;30.642;2024-01-30T02:01:53;101663.72;;;1.40;89.08
48926;BME280;39838;59.938;30.642;2024-01-30T02:04:20;101661.00;;;1.36;89.26
48926;BME280;39838;59.938;30.642;2024-01-30T02:06:48;101669.50;;;1.35;89.07
48926;BME280;39838;59.938;30.642;2024-01-30T02:09:16;101661.53;;;1.31;89.39
48926;BME280;39838;59.938;30.642;2024-01-30T02:11:44;101665.97;;;1.19;89.72
48926;BME280;39838;59.938;30.642;2024-01-30T02:14:12;101682.56;;;1.25;89.57
48926;BME280;39838;59.938;30.642;2024-01-30T02:16:39;101683.44;;;1.26;90.26
48926;BME280;39838;59.938;30.642;2024-01-30T02:19:07;101689.44;;;1.26;89.87
48926;BME280;39838;59.938;30.642;2024-01-30T02:21:39;101678.59;;;1.16;90.30
48926;BME280;39838;59.938;30.642;2024-01-30T02:24:06;101701.19;;;1.23;90.56
48926;BME280;39838;59.938;30.642;2024-01-30T02:26:33;101704.22;;;1.16;90.62
48926;BME280;39838;59.938;30.642;2024-01-30T02:29:01;101709.22;;;1.14;90.83
48926;BME280;39838;59.938;30.642;2024-01-30T02:31:28;101695.44;;;1.12;91.08
48926;BME280;39838;59.938;30.642;2024-01-30T02:33:55;101698.81;;;1.11;90.92
48926;BME280;39838;59.938;30.642;2024-01-30T02:36:22;101694.41;;;1.08;91.63
48926;BME280;39838;59.938;30.642;2024-01-30T02:38:51;101713.28;;;1.11;91.12
48926;BME280;39838;59.938;30.642;2024-01-30T02:41:18;101714.16;;;1.11;90.87
48926;BME280;39838;59.938;30.642;2024-01-30T02:43:46;101699.69;;;1.12;91.27
48926;BME280;39838;59.938;30.642;2024-01-30T02:46:13;101703.94;;;1.11;91.27
48926;BME280;39838;59.938;30.642;2024-01-30T02:48:40;101692.09;;;1.13;91.25
48926;BME280;39838;59.938;30.642;2024-01-30T02:51:07;101701.66;;;1.16;90.28
48926;BME280;39838;59.938;30.642;2024-01-30T02:53:35;101705.25;;;1.19;90.69
48926;BME280;39838;59.938;30.642;2024-01-30T02:56:04;101712.41;;;1.25;90.61
48926;BME280;39838;59.938;30.642;2024-01-30T02:58:35;101690.84;;;1.21;90.69
48926;BME280;39838;59.938;30.642;2024-01-30T03:01:03;101712.03;;;1.33;90.17
48926;BME280;39838;59.938;30.642;2024-01-30T03:03:30;101716.47;;;1.36;89.74
48926;BME280;39838;59.938;30.642;2024-01-30T03:05:57;101711.34;;;1.36;89.95
48926;BME280;39838;59.938;30.642;2024-01-30T03:08:24;101711.88;;;1.30;89.98
48926;BME280;39838;59.938;30.642;2024-01-30T03:10:52;101711.69;;;1.27;89.87
48926;BME280;39838;59.938;30.642;2024-01-30T03:13:21;101714.00;;;1.23;89.57
48926;BME280;39838;59.938;30.642;2024-01-30T03:15:49;101713.88;;;1.21;89.57
48926;BME280;39838;59.938;30.642;2024-01-30T03:18:17;101725.56;;;1.16;89.91
48926;BME280;39838;59.938;30.642;2024-01-30T03:20:44;101732.38;;;1.16;89.73
48926;BME280;39838;59.938;30.642;2024-01-30T03:23:11;101734.56;;;1.09;90.01
48926;BME280;39838;59.938;30.642;2024-01-30T03:25:39;101735.53;;;1.12;90.06
48926;BME280;39838;59.938;30.642;2024-01-30T03:28:06;101736.69;;;1.17;90.43
48926;BME280;39838;59.938;30.642;2024-01-30T03:30:35;101743.56;;;1.18;90.05
48926;BME280;39838;59.938;30.642;2024-01-30T03:33:03;101747.00;;;1.18;90.24
48926;BME280;39838;59.938;30.642;2024-01-30T03:35:30;101742.75;;;1.19;90.02
48926;BME280;39838;59.938;30.642;2024-01-30T03:37:58;101749.50;;;1.17;89.94
48926;BME280;39838;59.938;30.642;2024-01-30T03:40:25;101766.59;;;1.18;90.06
48926;BME280;39838;59.938;30.642;2024-01-30T03:42:52;101761.41;;;1.16;90.09
48926;BME280;39838;59.938;30.642;2024-01-30T03:45:20;101752.84;;;1.16;89.68
48926;BME280;39838;59.938;30.642;2024-01-30T03:47:48;101744.09;;;1.12;89.96
48926;BME280;39838;59.938;30.642;2024-01-30T03:50:16;101750.63;;;1.07;89.89
48926;BME280;39838;59.938;30.642;2024-01-30T03:52:43;101746.13;;;1.03;90.17
48926;BME280;39838;59.938;30.642;2024-01-30T03:55:10;101734.66;;;0.96;90.25
48926;BME280;39838;59.938;30.642;2024-01-30T03:57:37;101753.38;;;0.95;90.37
48926;BME280;39838;59.938;30.642;2024-01-30T04:00:06;101750.44;;;0.89;90.54
48926;BME280;39838;59.938;30.642;2024-01-30T04:02:34;101751.03;;;0.85;90.75
48926;BME280;39838;59.938;30.642;2024-01-30T04:05:03;101749.88;;;0.80;91.08
48926;BME280;39838;59.938;30.642;2024-01-30T04:07:30;101748.84;;;0.76;91.38
48926;BME280;39838;59.938;30.642;2024-01-30T04:09:57;101742.72;;;0.74;91.23
48926;BME280;39838;59.938;30.642;2024-01-30T04:12:25;101747.06;;;0.75;91.35
48926;BME280;39838;59.938;30.642;2024-01-30T04:14:52;101755.63;;;0.76;91.86
48926;BME280;39838;59.938;30.642;2024-01-30T04:17:19;101746.00;;;0.72;91.83
48926;BME280;39838;59.938;30.642;2024-01-30T04:19:47;101745.91;;;0.70;91.73
48926;BME280;39838;59.938;30.642;2024-01-30T04:22:16;101750.16;;;0.70;91.74
48926;BME280;39838;59.938;30.642;2024-01-30T04:24:43;101750.94;;;0.69;92.13
48926;BME280;39838;59.938;30.642;2024-01-30T04:27:10;101726.91;;;0.67;92.20
48926;BME280;39838;59.938;30.642;2024-01-30T04:29:37;101731.06;;;0.65;92.49
48926;BME280;39838;59.938;30.642;2024-01-30T04:32:05;101736.91;;;0.62;92.27
48926;BME280;39838;59.938;30.642;2024-01-30T04:34:33;101735.91;;;0.60;92.96
48926;BME280;39838;59.938;30.642;2024-01-30T04:37:00;101734.34;;;0.62;92.96
48926;BME280;39838;59.938;30.642;2024-01-30T04:39:29;101734.22;;;0.61;92.78
48926;BME280;39838;59.938;30.642;2024-01-30T04:41:56;101738.66;;;0.63;93.11
48926;BME280;39838;59.938;30.642;2024-01-30T04:44:23;101731.66;;;0.61;92.77
48926;BME280;39838;59.938;30.642;2024-01-30T04:46:50;101736.91;;;0.62;92.72
48926;BME280;39838;59.938;30.642;2024-01-30T04:49:18;101740.25;;;0.61;93.13
48926;BME280;39838;59.938;30.642;2024-01-30T04:51:45;101736.91;;;0.62;92.81
48926;BME280;39838;59.938;30.642;2024-01-30T04:54:12;101736.19;;;0.65;92.93
48926;BME280;39838;59.938;30.642;2024-01-30T04:56:41;101731.94;;;0.65;92.71
48926;BME280;39838;59.938;30.642;2024-01-30T04:59:08;101740.50;;;0.66;92.85
48926;BME280;39838;59.938;30.642;2024-01-30T05:01:35;101743.16;;;0.67;92.83
48926;BME280;39838;59.938;30.642;2024-01-30T05:04:03;101741.69;;;0.71;92.51
48926;BME280;39838;59.938;30.642;2024-01-30T05:06:30;101733.19;;;0.72;92.54
48926;BME280;39838;59.938;30.642;2024-01-30T05:08:57;101739.47;;;0.77;92.24
48926;BME280;39838;59.938;30.642;2024-01-30T05:11:25;101748.91;;;0.78;92.12
48926;BME280;39838;59.938;30.642;2024-01-30T05:13:53;101748.03;;;0.77;92.34
48926;BME280;39838;59.938;30.642;2024-01-30T05:16:21;101744.69;;;0.78;92.05
48926;BME280;39838;59.938;30.642;2024-01-30T05:18:48;101757.56;;;0.80;92.01
48926;BME280;39838;59.938;30.642;2024-01-30T05:21:15;101761.88;;;0.81;92.14
48926;BME280;39838;59.938;30.642;2024-01-30T05:23:42;101762.00;;;0.82;91.70
48926;BME280;39838;59.938;30.642;2024-01-30T05:26:10;101763.13;;;0.88;92.04
48926;BME280;39838;59.938;30.642;2024-01-30T05:28:37;101767.63;;;0.92;91.46
48926;BME280;39838;59.938;30.642;2024-01-30T05:31:06;101770.19;;;0.92;91.35
48926;BME280;39838;59.938;30.642;2024-01-30T05:33:33;101776.28;;;0.94;91.17
48926;BME280;39838;59.938;30.642;2024-01-30T05:36:00;101778.03;;;0.95;91.29
48926;BME280;39838;59.938;30.642;2024-01-30T05:38:28;101794.56;;;1.00;91.49
48926;BME280;39838;59.938;30.642;2024-01-30T05:40:56;101794.47;;;0.98;91.17
48926;BME280;39838;59.938;30.642;2024-01-30T05:43:24;101792.50;;;0.94;90.91
48926;BME280;39838;59.938;30.642;2024-01-30T05:45:52;101799.75;;;0.87;91.17
48926;BME280;39838;59.938;30.642;2024-01-30T05:48:20;101806.28;;;0.81;91.27
48926;BME280;39838;59.938;30.642;2024-01-30T05:50:48;101818.78;;;0.77;91.69
48926;BME280;39838;59.938;30.642;2024-01-30T05:53:15;101812.50;;;0.72;91.24
48926;BME280;39838;59.938;30.642;2024-01-30T05:55:42;101807.22;;;0.69;91.51
48926;BME280;39838;59.938;30.642;2024-01-30T05:58:09;101821.78;;;0.70;91.61
48926;BME280;39838;59.938;30.642;2024-01-30T06:00:37;101816.56;;;0.68;91.87
48926;BME280;39838;59.938;30.642;2024-01-30T06:03:04;101816.66;;;0.70;91.97
48926;BME280;39838;59.938;30.642;2024-01-30T06:05:33;101798.84;;;0.71;92.22
48926;BME280;39838;59.938;30.642;2024-01-30T06:08:01;101799.72;;;0.72;91.97
48926;BME280;39838;59.938;30.642;2024-01-30T06:10:28;101810.91;;;0.74;91.73
48926;BME280;39838;59.938;30.642;2024-01-30T06:12:56;101815.59;;;0.81;91.97
48926;BME280;39838;59.938;30.642;2024-01-30T06:15:23;101805.50;;;0.82;91.65
48926;BME280;39838;59.938;30.642;2024-01-30T06:17:50;101801.41;;;0.86;91.72
48926;BME280;39838;59.938;30.642;2024-01-30T06:20:18;101797.09;;;0.85;91.10
48926;BME280;39838;59.938;30.642;2024-01-30T06:22:47;101807.34;;;0.85;91.55
48926;BME280;39838;59.938;30.642;2024-01-30T06:25:14;101813.34;;;0.86;91.40
48926;BME280;39838;59.938;30.642;2024-01-30T06:27:42;101810.78;;;0.86;91.69
48926;BME280;39838;59.938;30.642;2024-01-30T06:30:11;101810.19;;;0.90;91.70
48926;BME280;39838;59.938;30.642;2024-01-30T06:32:38;101800.63;;;0.87;91.55
48926;BME280;39838;59.938;30.642;2024-01-30T06:35:06;101810.25;;;0.91;91.53
48926;BME280;39838;59.938;30.642;2024-01-30T06:37:34;101811.94;;;0.91;91.69
48926;BME280;39838;59.938;30.642;2024-01-30T06:40:03;101795.06;;;0.94;91.05
48926;BME280;39838;59.938;30.642;2024-01-30T06:42:31;101798.50;;;0.95;91.35
48926;BME280;39838;59.938;30.642;2024-01-30T06:44:58;101806.31;;;0.96;91.26
48926;BME280;39838;59.938;30.642;2024-01-30T06:47:25;101807.28;;;0.98;91.01
48926;BME280;39838;59.938;30.642;2024-01-30T06:49:53;101818.38;;;0.99;90.82
48926;BME280;39838;59.938;30.642;2024-01-30T06:52:20;101836.31;;;0.99;91.10
48926;BME280;39838;59.938;30.642;2024-01-30T06:54:47;101837.03;;;0.96;91.40
48926;BME280;39838;59.938;30.642;2024-01-30T06:57:16;101829.22;;;0.95;90.82
48926;BME280;39838;59.938;30.642;2024-01-30T06:59:43;101834.53;;;0.98;91.14
48926;BME280;39838;59.938;30.642;2024-01-30T07:02:10;101824.38;;;0.99;91.07
48926;BME280;39838;59.938;30.642;2024-01-30T07:04:38;101828.91;;;1.03;91.43
48926;BME280;39838;59.938;30.642;2024-01-30T07:07:06;101826.94;;;0.99;91.02
48926;BME280;39838;59.938;30.642;2024-01-30T07:09:38;101831.19;;;0.99;91.07
48926;BME280;39838;59.938;30.642;2024-01-30T07:12:06;101830.31;;;0.98;91.18
48926;BME280;39838;59.938;30.642;2024-01-30T07:14:35;101832.88;;;0.98;91.22
48926;BME280;39838;59.938;30.642;2024-01-30T07:17:02;101842.31;;;0.99;91.39
48926;BME280;39838;59.938;30.642;2024-01-30T07:19:30;101842.13;;;0.96;91.44
48926;BME280;39838;59.938;30.642;2024-01-30T07:21:57;101842.22;;;0.98;91.81
48926;BME280;39838;59.938;30.642;2024-01-30T07:24:24;101842.50;;;1.02;91.92
48926;BME280;39838;59.938;30.642;2024-01-30T07:26:52;101830.91;;;0.94;91.68
48926;BME280;39838;59.938;30.642;2024-01-30T07:29:20;101841.72;;;1.03;92.10
48926;BME280;39838;59.938;30.642;2024-01-30T07:31:49;101838.53;;;1.07;91.75
48926;BME280;39838;59.938;30.642;2024-01-30T07:34:17;101845.69;;;1.13;91.89
48926;BME280;39838;59.938;30.642;2024-01-30T07:36:44;101851.00;;;1.16;91.84
48926;BME280;39838;59.938;30.642;2024-01-30T07:39:12;101859.81;;;1.21;91.63
48926;BME280;39838;59.938;30.642;2024-01-30T07:41:40;101856.50;;;1.22;91.74
48926;BME280;39838;59.938;30.642;2024-01-30T07:44:07;101855.41;;;1.19;91.23
48926;BME280;39838;59.938;30.642;2024-01-30T07:46:34;101850.63;;;1.10;91.21
48926;BME280;39838;59.938;30.642;2024-01-30T07:49:03;101852.91;;;1.05;90.88
48926;BME280;39838;59.938;30.642;2024-01-30T07:51:30;101848.94;;;0.96;91.33
48926;BME280;39838;59.938;30.642;2024-01-30T07:53:58;101849.63;;;0.93;90.95
48926;BME280;39838;59.938;30.642;2024-01-30T07:56:26;101850.84;;;0.85;91.30
48926;BME280;39838;59.938;30.642;2024-01-30T07:58:53;101847.09;;;0.80;91.26
48926;BME280;39838;59.938;30.642;2024-01-30T08:01:21;101832.41;;;0.63;91.47
48926;BME280;39838;59.938;30.642;2024-01-30T08:03:48;101844.16;;;0.74;91.76
48926;BME280;39838;59.938;30.642;2024-01-30T08:06:17;101856.88;;;0.72;91.96
48926;BME280;39838;59.938;30.642;2024-01-30T08:08:44;101857.09;;;0.75;92.21
48926;BME280;39838;59.938;30.642;2024-01-30T08:11:12;101861.41;;;0.76;92.21
48926;BME280;39838;59.938;30.642;2024-01-30T08:13:39;101856.38;;;0.78;92.45
48926;BME280;39838;59.938;30.642;2024-01-30T08:16:07;101862.44;;;0.80;92.79
48926;BME280;39838;59.938;30.642;2024-01-30T08:18:34;101855.56;;;0.79;92.88
48926;BME280;39838;59.938;30.642;2024-01-30T08:21:01;101848.09;;;0.82;92.62
48926;BME280;39838;59.938;30.642;2024-01-30T08:23:31;101855.06;;;0.85;92.56
48926;BME280;39838;59.938;30.642;2024-01-30T08:25:58;101857.53;;;0.83;92.74
48926;BME280;39838;59.938;30.642;2024-01-30T08:28:26;101858.50;;;0.85;92.30
48926;BME280;39838;59.938;30.642;2024-01-30T08:30:53;101856.84;;;0.86;92.40
48926;BME280;39838;59.938;30.642;2024-01-30T08:33:20;101855.34;;;0.89;92.13
48926;BME280;39838;59.938;30.642;2024-01-30T08:35:47;101851.03;;;0.88;92.31
48926;BME280;39838;59.938;30.642;2024-01-30T08:38:15;101850.03;;;0.86;92.12
48926;BME280;39838;59.938;30.642;2024-01-30T08:40:44;101852.44;;;0.83;92.22
48926;BME280;39838;59.938;30.642;2024-01-30T08:43:11;101843.75;;;0.81;92.25
48926;BME280;39838;59.938;30.642;2024-01-30T08:45:38;101852.50;;;0.85;92.50
48926;BME280;39838;59.938;30.642;2024-01-30T08:48:06;101841.47;;;0.86;92.56
48926;BME280;39838;59.938;30.642;2024-01-30T08:50:33;101854.19;;;0.84;92.40
48926;BME280;39838;59.938;30.642;2024-01-30T08:53:01;101846.50;;;0.84;92.48
48926;BME280;39838;59.938;30.642;2024-01-30T08:55:28;101849.88;;;0.83;92.50
48926;BME280;39838;59.938;30.642;2024-01-30T08:57:57;101849.88;;;0.83;92.65
48926;BME280;39838;59.938;30.642;2024-01-30T09:00:25;101854.09;;;0.82;92.65
48926;BME280;39838;59.938;30.642;2024-01-30T09:02:52;101845.72;;;0.85;92.38
48926;BME280;39838;59.938;30.642;2024-01-30T09:05:19;101863.19;;;0.92;92.41
48926;BME280;39838;59.938;30.642;2024-01-30T09:07:47;101871.97;;;0.96;92.34
48926;BME280;39838;59.938;30.642;2024-01-30T09:10:14;101866.31;;;1.01;92.33
48926;BME280;39838;59.938;30.642;2024-01-30T09:12:41;101861.31;;;1.03;92.76
48926;BME280;39838;59.938;30.642;2024-01-30T09:15:10;101868.56;;;1.10;92.34
48926;BME280;39838;59.938;30.642;2024-01-30T09:17:38;101869.69;;;1.15;92.07
48926;BME280;39838;59.938;30.642;2024-01-30T09:20:06;101873.50;;;1.22;91.75
48926;BME280;39838;59.938;30.642;2024-01-30T09:22:35;101874.75;;;1.28;91.30
48926;BME280;39838;59.938;30.642;2024-01-30T09:25:03;101881.22;;;1.36;91.04
48926;BME280;39838;59.938;30.642;2024-01-30T09:27:30;101875.38;;;1.39;90.84
48926;BME280;39838;59.938;30.642;2024-01-30T09:29:57;101878.84;;;1.40;90.74
48926;BME280;39838;59.938;30.642;2024-01-30T09:32:26;101884.25;;;1.44;90.69
48926;BME280;39838;59.938;30.642;2024-01-30T09:34:53;101886.16;;;1.48;90.16
48926;BME280;39838;59.938;30.642;2024-01-30T09:37:21;101885.41;;;1.49;90.43
48926;BME280;39838;59.938;30.642;2024-01-30T09:39:48;101891.66;;;1.54;90.05
48926;BME280;39838;59.938;30.642;2024-01-30T09:42:23;101895.28;;;1.58;89.74
48926;BME280;39838;59.938;30.642;2024-01-30T09:44:53;101896.53;;;1.64;89.88
48926;BME280;39838;59.938;30.642;2024-01-30T09:47:21;101884.06;;;1.71;89.56
48926;BME280;39838;59.938;30.642;2024-01-30T09:49:51;101889.19;;;1.71;89.23
48926;BME280;39838;59.938;30.642;2024-01-30T09:52:18;101890.00;;;1.70;89.14
48926;BME280;39838;59.938;30.642;2024-01-30T09:54:47;101899.09;;;1.64;89.08
48926;BME280;39838;59.938;30.642;2024-01-30T09:57:16;101900.25;;;1.70;89.57
48926;BME280;39838;59.938;30.642;2024-01-30T09:59:43;101892.13;;;1.77;89.12
48926;BME280;39838;59.938;30.642;2024-01-30T10:02:11;101883.63;;;1.78;88.87
48926;BME280;39838;59.938;30.642;2024-01-30T10:04:38;101887.06;;;1.78;88.66
48926;BME280;39838;59.938;30.642;2024-01-30T10:07:07;101895.38;;;1.74;88.69
48926;BME280;39838;59.938;30.642;2024-01-30T10:09:36;101887.53;;;1.71;88.73
48926;BME280;39838;59.938;30.642;2024-01-30T10:12:04;101893.59;;;1.73;88.68
48926;BME280;39838;59.938;30.642;2024-01-30T10:14:33;101902.97;;;1.73;88.82
48926;BME280;39838;59.938;30.642;2024-01-30T10:17:01;101894.56;;;1.75;88.89
48926;BME280;39838;59.938;30.642;2024-01-30T10:19:29;101895.66;;;1.79;88.97
48926;BME280;39838;59.938;30.642;2024-01-30T10:21:56;101890.94;;;1.86;88.74
48926;BME280;39838;59.938;30.642;2024-01-30T10:24:25;101877.34;;;1.87;88.61
48926;BME280;39838;59.938;30.642;2024-01-30T10:26:55;101886.06;;;2.06;88.23
48926;BME280;39838;59.938;30.642;2024-01-30T10:29:22;101892.25;;;2.09;87.97
48926;BME280;39838;59.938;30.642;2024-01-30T10:31:58;101877.94;;;2.13;87.71
48926;BME280;39838;59.938;30.642;2024-01-30T10:34:26;101882.44;;;2.17;87.41
48926;BME280;39838;59.938;30.642;2024-01-30T10:37:00;101888.44;;;2.17;87.21
48926;BME280;39838;59.938;30.642;2024-01-30T10:39:31;101871.47;;;2.19;87.32
48926;BME280;39838;59.938;30.642;2024-01-30T10:42:04;101879.22;;;2.21;86.84
48926;BME280;39838;59.938;30.642;2024-01-30T10:44:38;101892.31;;;2.26;86.39
48926;BME280;39838;59.938;30.642;2024-01-30T10:47:11;101862.09;;;2.20;86.14
48926;BME280;39838;59.938;30.642;2024-01-30T10:49:41;101888.38;;;2.47;86.08
48926;BME280;39838;59.938;30.642;2024-01-30T10:52:10;101889.66;;;2.55;85.66
48926;BME280;39838;59.938;30.642;2024-01-30T10:54:43;101887.09;;;2.55;85.30
48926;BME280;39838;59.938;30.642;2024-01-30T10:57:12;101859.34;;;2.48;85.11
48926;BME280;39838;59.938;30.642;2024-01-30T10:59:41;101888.72;;;2.69;84.89
48926;BME280;39838;59.938;30.642;2024-01-30T11:02:10;101882.78;;;2.70;84.61
48926;BME280;39838;59.938;30.642;2024-01-30T11:04:37;101893.06;;;2.70;84.54
48926;BME280;39838;59.938;30.642;2024-01-30T11:07:14;101887.16;;;2.71;84.23
48926;BME280;39838;59.938;30.642;2024-01-30T11:09:49;101894.19;;;2.76;83.90
48926;BME280;39838;59.938;30.642;2024-01-30T11:12:21;101903.50;;;2.73;84.54
48926;BME280;39838;59.938;30.642;2024-01-30T11:14:48;101900.47;;;2.81;84.20
48926;BME280;39838;59.938;30.642;2024-01-30T11:17:15;101900.59;;;2.84;83.86
48926;BME280;39838;59.938;30.642;2024-01-30T11:19:43;101906.88;;;2.89;83.50
48926;BME280;39838;59.938;30.642;2024-01-30T11:22:11;101904.50;;;2.92;83.41
48926;BME280;39838;59.938;30.642;2024-01-30T11:24:41;101894.28;;;2.93;83.28
48926;BME280;39838;59.938;30.642;2024-01-30T11:27:10;101902.16;;;2.96;82.61
48926;BME280;39838;59.938;30.642;2024-01-30T11:29:37;101901.44;;;2.99;82.44
48926;BME280;39838;59.938;30.642;2024-01-30T11:32:05;101905.69;;;2.98;82.54
48926;BME280;39838;59.938;30.642;2024-01-30T11:34:33;101896.31;;;2.99;81.68
48926;BME280;39838;59.938;30.642;2024-01-30T11:37:04;101871.50;;;2.83;81.82
48926;BME280;39838;59.938;30.642;2024-01-30T11:39:36;101889.22;;;2.95;81.61
48926;BME280;39838;59.938;30.642;2024-01-30T11:42:06;101891.72;;;2.93;81.73
48926;BME280;39838;59.938;30.642;2024-01-30T11:44:36;101888.44;;;2.96;81.87
48926;BME280;39838;59.938;30.642;2024-01-30T11:47:03;101891.72;;;2.93;81.43
48926;BME280;39838;59.938;30.642;2024-01-30T11:49:31;101895.81;;;2.90;81.74
48926;BME280;39838;59.938;30.642;2024-01-30T11:51:58;101899.91;;;2.86;81.33
48926;BME280;39838;59.938;30.642;2024-01-30T11:54:25;101897.41;;;2.88;81.06
48926;BME280;39838;59.938;30.642;2024-01-30T11:56:53;101895.06;;;2.76;80.93
48926;BME280;39838;59.938;30.642;2024-01-30T11:59:20;101896.81;;;2.77;81.12
48926;BME280;39838;59.938;30.642;2024-01-30T12:01:51;101892.69;;;2.79;81.14
48926;BME280;39838;59.938;30.642;2024-01-30T12:04:18;101895.25;;;2.79;81.18
48926;BME280;39838;59.938;30.642;2024-01-30T12:06:51;101887.56;;;2.79;80.77
48926;BME280;39838;59.938;30.642;2024-01-30T12:09:18;101892.03;;;2.83;81.00
48926;BME280;39838;59.938;30.642;2024-01-30T12:11:46;101891.94;;;2.82;80.68
48926;BME280;39838;59.938;30.642;2024-01-30T12:14:14;101885.84;;;2.80;80.70
48926;BME280;39838;59.938;30.642;2024-01-30T12:16:42;101894.19;;;2.76;80.86
48926;BME280;39838;59.938;30.642;2024-01-30T12:19:10;101891.81;;;2.79;80.65
48926;BME280;39838;59.938;30.642;2024-01-30T12:21:38;101860.00;;;2.60;80.46
48926;BME280;39838;59.938;30.642;2024-01-30T12:24:06;101885.06;;;2.81;80.62
48926;BME280;39838;59.938;30.642;2024-01-30T12:26:34;101886.81;;;2.82;80.58
48926;BME280;39838;59.938;30.642;2024-01-30T12:29:04;101881.34;;;2.76;80.35
48926;BME280;39838;59.938;30.642;2024-01-30T12:31:32;101883.84;;;2.74;80.49
48926;BME280;39838;59.938;30.642;2024-01-30T12:33:59;101880.31;;;2.72;80.61
48926;BME280;39838;59.938;30.642;2024-01-30T12:36:28;101874.13;;;2.68;80.21
48926;BME280;39838;59.938;30.642;2024-01-30T12:38:57;101878.47;;;2.69;80.48
48926;BME280;39838;59.938;30.642;2024-01-30T12:41:24;101881.19;;;2.72;80.36
48926;BME280;39838;59.938;30.642;2024-01-30T12:43:54;101884.56;;;2.71;80.05
48926;BME280;39838;59.938;30.642;2024-01-30T12:46:27;101876.69;;;2.68;80.31
48926;BME280;39838;59.938;30.642;2024-01-30T12:48:55;101878.38;;;2.68;80.47
48926;BME280;39838;59.938;30.642;2024-01-30T12:51:23;101874.94;;;2.67;80.62
48926;BME280;39838;59.938;30.642;2024-01-30T12:53:51;101877.50;;;2.67;80.25